Aviation Digital Data Service (ADDS)

Output produced by METARs form (1459 UTC 07 February 2016)
found at http://aviationweather.gov/adds/metars/
 
KMIV 071136Z 0712/0812 00000KT P6SM FEW200 
     FM071400 02004KT P6SM SCT200 
     FM072000 05007KT P6SM BKN200 
     FM080500 02010KT P6SM OVC100 
     FM080900 02012G18KT P6SM SCT030 OVC050